Terminal Aerodrome Forecast
Issued by NWS Bismarck, ND

Home | Current Version | Previous Version | Text Only | Print | Product List | Glossary On
Versions: 1 2 3 4 5 6 7 8 9 10 11 12 13 14 15
000
FTUS43 KBIS 302106 AAA
TAFISN
TAF AMD
KISN 302106Z 3021/0118 08014KT 5SM FU BKN050
     FM302230 11013KT P6SM VCTS BKN050CB OVC080
     FM010600 08009KT P6SM BKN035 OVC070
     FM011000 36005KT 6SM BR SCT015 OVC025=

USA.gov is the U.S. government's official web portal to all federal, state and local government web resources and services.